1999 Severe Tropical Cyclone GWENDA (1999092S11131)


IBTrACS version v04r00. Visit IBTrACS website for data access.
Please direct all questions to the IBTrACS Q and A forum

Storm track - Intensity - Wind Radii - Intensity Data - Source Data - All data

Summary Information

Satellite image near maximum intensity
Storm ID 1999092S11131
Start Apr 2 00Z
Landfall Apr 7 16Z
Max Intensity 130 kt (Apr 7 00Z), 900 mb (Apr 6 10Z)
End Apr 8 12Z
ATCF IDs ,SH321999
Track status Best track data.

Storm track plot

Map of storm track

Intensity plots

Map of storm track

Radial wind information

Map of storm track

Position and Intensity Table

BASIN ISO_TIME_________ NATURE LAT LON WMO WIND WMO PRES USA WIND BOM WIND BOM PRES NEUMANN WIND
degrees north degrees east kts mb kts kts mb kts
SI 1999-04-02 00:00:00 NR -11.20 131.00 20 1007 20 1007
SI 03:00:00 NR -11.16 130.85
SI 06:00:00 NR -11.12 130.69
SI 09:00:00 NR -11.08 130.52
SI 12:00:00 NR -11.05 130.33
SI 15:00:00 NR -11.03 130.11
SI 18:00:00 NR -11.01 129.85
SI 21:00:00 NR -11.00 129.55
SI 1999-04-03 00:00:00 NR -11.00 129.20 25 1006 25 1006
SI 03:00:00 NR -11.01 128.80
SI 06:00:00 NR -11.04 128.34
SI 09:00:00 NR -11.07 127.85
SI 12:00:00 TS -11.27 126.99 15 15
SI 15:00:00 TS -11.38 126.38 15 15
SI 18:00:00 TS -11.44 125.87 15 15
SI 21:00:00 TS -11.48 125.36 15 15
SI 1999-04-04 00:00:00 TS -11.50 124.87 25 1002 15 25 1002 15
SI 03:00:00 TS -11.50 124.33 20 27 1001 20
SI 06:00:00 TS -11.53 123.80 30 1000 25 30 1000 25
SI 09:00:00 TS -11.63 123.33 25 32 999 25
SI 12:00:00 TS -11.77 122.87 35 998 25 35 998 25
SI 15:00:00 TS -11.90 122.36 25 38 995 25
SI 16:00:00 TS -11.96 122.18 40 995 25 40 995 25
SI 18:00:00 TS -12.07 121.80 25 40 991 25
SI 19:00:00 TS -12.12 121.62 40 990 25 40 990 25
SI 21:00:00 TS -12.21 121.27 27 46 990 27
SI 22:00:00 TS -12.24 121.09 50 990 28 50 990 28
SI 1999-04-05 00:00:00 TS -12.32 120.73 30 53 986 30
SI 01:00:00 TS -12.37 120.54 55 985 30 55 985 30
SI 03:00:00 TS -12.47 120.18 30 58 981 30
SI 04:00:00 TS -12.53 120.00 60 980 30 60 980 30
SI 06:00:00 TS -12.68 119.65 30 66 976 30
SI 07:00:00 TS -12.76 119.49 70 975 32 70 975 32
SI 09:00:00 TS -12.93 119.19 37 73 971 37
SI 10:00:00 TS -13.02 119.05 75 970 40 75 970 40
SI 12:00:00 TS -13.23 118.76 45 78 966 45
SI 13:00:00 TS -13.34 118.62 80 965 46 80 965 46
SI 15:00:00 TS -13.55 118.32 50 83 961 50
SI 16:00:00 TS -13.66 118.19 85 960 51 85 960 51
SI 18:00:00 TS -13.88 117.94 55 91 953 55
SI 19:00:00 TS -14.00 117.81 95 950 58 95 950 58
SI 21:00:00 TS -14.26 117.54 65 98 943 65
SI 22:00:00 TS -14.40 117.42 100 940 68 100 940 68
SI 1999-04-06 00:00:00 TS -14.71 117.22 75 106 933 75
SI 01:00:00 TS -14.85 117.15 110 930 78 110 930 78
SI 03:00:00 TS -15.12 117.00 85 113 923 85
SI 04:00:00 TS -15.25 116.94 115 920 88 115 920 88
SI 06:00:00 TS -15.49 116.85 95 118 913 95
SI 07:00:00 TS -15.61 116.80 120 910 98 120 910 98
SI 09:00:00 TS -15.89 116.73 105 120 903 105
SI 10:00:00 TS -16.02 116.70 120 900 108 120 900 108
SI 12:00:00 TS -16.24 116.62 115 120 900 115
SI 13:00:00 TS -16.34 116.59 120 900 116 120 900 116
SI 15:00:00 TS -16.52 116.53 120 116 900 120
SI 16:00:00 TS -16.60 116.52 115 900 121 115 900 121
SI 18:00:00 TS -16.78 116.53 125 108 906 125
SI 19:00:00 TS -16.85 116.54 105 910 125 105 910 125
SI 21:00:00 TS -17.02 116.58 127 101 916 127
SI 22:00:00 TS -17.12 116.63 100 920 128 100 920 128
SI 1999-04-07 00:00:00 TS -17.38 116.78 130 96 926 130
SI 01:00:00 TS -17.57 116.88 95 930 127 95 930 127
SI 03:00:00 TS -18.01 117.09 122 95 933 122
SI 04:00:00 TS -18.25 117.20 95 935 119 95 935 119
SI 05:00:00 TS -18.48 117.31 95 935 117 95 935 117
SI 06:00:00 TS -18.70 117.43 95 940 115 95 940 115
SI 07:00:00 TS -18.89 117.56 90 940 112 90 940 112
SI 08:00:00 TS -19.08 117.73 90 945 109 90 945 109
SI 09:00:00 TS -19.25 117.88 85 945 107 85 945 107
SI 10:00:00 TS -19.39 118.02 80 950 104 80 950 104
SI 11:00:00 TS -19.56 118.18 80 955 102 80 955 102
SI 12:00:00 TS -19.70 118.33 70 960 100 70 960 100
SI 13:00:00 TS -19.84 118.52 65 965 93 65 965 93
SI 14:00:00 TS -19.99 118.67 60 970 86 60 970 86
SI 15:00:00 TS -20.16 118.86 55 975 80 55 975 80
SI 16:00:00 TS -20.34 119.01 50 980 73 50 980 73
SI 17:00:00 TS -20.49 119.17 40 985 66 40 985 66
SI 18:00:00 TS -20.63 119.33 35 990 60 35 990 60
SI 19:00:00 TS -20.79 119.51 30 995 57 30 995 57
SI 20:00:00 TS -20.96 119.72 30 998 54 30 998 54
SI 21:00:00 TS -21.12 119.93 25 999 52 25 999 52
SI 22:00:00 TS -21.25 120.13 25 1000 49 25 1000 49
SI 1999-04-08 00:00:00 TS -21.41 120.46 45 25 1000 45
SI 01:00:00 TS -21.56 120.63 25 1001 43 25 1001 43
SI 03:00:00 TS -21.81 120.89 40 25 1001 40
SI 04:00:00 TS -22.07 121.02 25 1002 38 25 1002 38
SI 06:00:00 TS -22.50 121.20 35 35
SI 09:00:00 TS -22.79 121.43 30 30
SI 12:00:00 TS -23.10 121.70 25 25

Source Information

Agency Information
USA bsh321999.txt
TOKYO
CMA
HKO
NEWDELHI
REUNION
BOM IDCKMSTM0S.csv:Line=20333:GWENDA
NADI
WELLINGTON
DS824
TD9636
TD9635
NEUMANN tracks.sh:Storm=1173:GWENDA:BSH321999:JTWC
MLC

All available IBTrACS Data

SEASON BASIN SUBBASIN ISO_TIME_________ NATURE LAT LON WMO WIND WMO PRES WMO AGENCY DIST2LAND LANDFALL IFLAG USA AGENCY USA ATCF_ID USA LAT USA LON USA WIND USA SSHS BOM LAT BOM LON BOM TYPE BOM WIND BOM PRES BOM CI BOM ROCI BOM EYE BOM POS_METHOD BOM PRES_METHOD NEUMANN LAT NEUMANN LON NEUMANN CLASS NEUMANN WIND STORM SPEED STORM DIR
Year degrees north degrees east kts mb km km degrees north degrees east kts 1 degrees north degrees east kts mb 1 nmile nmile degrees north degrees east kts kts degrees
1999 SI WA 1999-04-02 00:00:00 NR -11.20 131.00 20 1007 bom 15 15 ______O_______ -1 -11.20 131.00 20 20 1007 1.00 3 3 286
1999 SI WA 03:00:00 NR -11.16 130.85 22 22 ______P_______ -1 -11.16 130.85 20 3 285
1999 SI WA 06:00:00 NR -11.12 130.69 24 22 ______P_______ -1 -11.12 130.69 20 3 283
1999 SI WA 09:00:00 NR -11.08 130.52 22 22 ______P_______ -1 -11.08 130.52 20 4 281
1999 SI WA 12:00:00 NR -11.05 130.33 31 31 ______P_______ -1 -11.05 130.33 20 4 278
1999 SI WA 15:00:00 NR -11.03 130.11 46 46 ______P_______ -1 -11.03 130.11 20 5 275
1999 SI WA 18:00:00 NR -11.01 129.85 55 55 ______P_______ -1 -11.01 129.85 20 5 273
1999 SI WA 21:00:00 NR -11.00 129.55 78 78 ______P_______ -1 -11.00 129.55 20 6 271
1999 SI WA 1999-04-03 00:00:00 NR -11.00 129.20 25 1006 bom 113 113 ______O_______ -1 -11.00 129.20 20 25 1006 1.50 3 5 7 269
1999 SI WA 03:00:00 NR -11.01 128.80 152 152 ______P_______ -1 -11.01 128.80 20 8 267
1999 SI WA 06:00:00 NR -11.04 128.34 204 204 ______P_______ -1 -11.04 128.34 20 9 267
1999 SI WA 09:00:00 NR -11.07 127.85 244 244 ______P_______ -1 -11.07 127.85 20 13 260
1999 SI WA 12:00:00 TS -11.27 126.99 263 250 O_____P_____O_ jtwc_sh SH321999 -11.60 126.30 15 -1 -11.11 127.34 20 -11.60 126.30 TC 15 15 258
1999 SI WA 15:00:00 TS -11.38 126.38 250 211 P_____P_____P_ SH321999 -11.60 125.97 15 -1 -11.15 126.80 20 -11.60 125.97 TC 15 11 261
1999 SI WA 18:00:00 TS -11.44 125.87 211 185 O_____P_____O_ jtwc_sh SH321999 -11.60 125.60 15 -1 -11.20 126.26 20 -11.60 125.60 TC 15 10 264
1999 SI WA 21:00:00 TS -11.48 125.36 185 162 P_____P_____P_ SH321999 -11.60 125.18 15 -1 -11.25 125.73 20 -11.60 125.18 TC 15 10 266
1999 SI WA 1999-04-04 00:00:00 TS -11.50 124.87 25 1002 bom 162 139 O_____O_____O_ jtwc_sh SH321999 -11.60 124.70 15 -1 -11.30 125.20 20 25 1002 2.00 80 3 5 -11.60 124.70 TC 15 10 269
1999 SI WA 03:00:00 TS -11.50 124.33 134 123 P_____P_____P_ SH321999 -11.59 124.15 20 -1 -11.33 124.70 20 27 1001 107 -11.59 124.15 TC 20 10 268
1999 SI WA 06:00:00 TS -11.53 123.80 30 1000 bom 123 123 O_____O_____O_ jtwc_sh SH321999 -11.60 123.60 25 -1 -11.40 124.20 20 30 1000 2.50 134 3 5 -11.60 123.60 TC 25 10 262
1999 SI WA 09:00:00 TS -11.63 123.33 136 136 P_____P_____P_ SH321999 -11.68 123.15 25 -1 -11.52 123.69 20 32 999 134 -11.68 123.15 TC 25 9 256
1999 SI WA 12:00:00 TS -11.77 122.87 35 998 bom 169 169 O_____O_____O_ jtwc_sh SH321999 -11.80 122.70 25 -1 -11.70 123.20 30 35 998 3.00 134 3 5 -11.80 122.70 TC 25 10 254
1999 SI WA 15:00:00 TS -11.90 122.36 206 206 P_____P_____P_ SH321999 -11.90 122.16 25 -1 -11.91 122.76 30 38 995 93 -11.90 122.16 TC 25 10 254
1999 SI WA 16:00:00 TS -11.96 122.18 40 995 bom 228 235 P_____O_____P_ SH321999 -11.93 121.97 25 -1 -12.00 122.60 30 40 995 3.00 80 3 5 -11.93 121.97 TC 25 11 253
1999 SI WA 18:00:00 TS -12.07 121.80 244 234 O_____P_____O_ jtwc_sh SH321999 -12.00 121.60 25 -1 -12.20 122.21 30 40 991 80 -12.00 121.60 TC 25 11 253
1999 SI WA 19:00:00 TS -12.12 121.62 40 990 bom 234 229 P_____O_____P_ SH321999 -12.03 121.43 25 -1 -12.30 122.00 30 40 990 3.00 80 3 5 -12.03 121.43 TC 25 11 255
1999 SI WA 21:00:00 TS -12.21 121.27 230 222 P_____P_____P_ SH321999 -12.08 121.10 27 -1 -12.45 121.60 30 46 990 80 -12.08 121.10 TC 27 11 256
1999 SI WA 22:00:00 TS -12.24 121.09 50 990 bom 222 226 P_____O_____P_ SH321999 -12.12 120.94 28 -1 -12.50 121.40 30 50 990 3.50 80 3 5 -12.12 120.94 TC 28 11 257
1999 SI WA 1999-04-05 00:00:00 TS -12.32 120.73 225 224 O_____P_____O_ jtwc_sh SH321999 -12.20 120.60 30 -1 -12.57 120.99 30 53 986 115 -12.20 120.60 TC 30 11 257
1999 SI WA 01:00:00 TS -12.37 120.54 55 985 bom 235 235 P_____O_____P_ SH321999 -12.25 120.42 30 -1 -12.60 120.80 30 55 985 4.00 134 3 5 -12.25 120.42 TC 30 11 255
1999 SI WA 03:00:00 TS -12.47 120.18 248 248 P_____P_____P_ SH321999 -12.37 120.04 30 -1 -12.66 120.46 30 58 981 134 -12.37 120.04 TC 30 11 253
1999 SI WA 04:00:00 TS -12.53 120.00 60 980 bom 252 252 P_____O_____P_ SH321999 -12.44 119.86 30 -1 -12.70 120.30 30 60 980 4.00 134 3 5 -12.44 119.86 TC 30 11 248
1999 SI WA 06:00:00 TS -12.68 119.65 282 282 O_____P_____O_ jtwc_sh SH321999 -12.60 119.50 30 -1 -12.83 119.96 30 66 976 151 -12.60 119.50 TC 30 11 245
1999 SI WA 07:00:00 TS -12.76 119.49 70 975 bom 300 300 P_____O_____P_ SH321999 -12.69 119.33 32 -1 -12.90 119.80 40 70 975 4.50 161 3 5 -12.69 119.33 TC 32 10 241
1999 SI WA 09:00:00 TS -12.93 119.19 321 321 P_____P_____P_ SH321999 -12.88 119.02 37 0 -13.03 119.54 40 73 971 161 -12.88 119.02 TC 37 10 238
1999 SI WA 10:00:00 TS -13.02 119.05 75 970 bom 339 339 P_____O_____P_ SH321999 -12.98 118.87 40 0 -13.10 119.40 40 75 970 4.50 161 3 5 -12.98 118.87 TC 40 10 234
1999 SI WA 12:00:00 TS -13.23 118.76 368 368 O_____P_____O_ jtwc_sh SH321999 -13.20 118.60 45 0 -13.29 119.08 40 78 966 196 -13.20 118.60 TC 45 11 233
1999 SI WA 13:00:00 TS -13.34 118.62 80 965 bom 388 398 P_____O_____P_ SH321999 -13.31 118.47 46 0 -13.40 118.90 40 80 965 5.00 215 3 5 -13.31 118.47 TC 46 11 233
1999 SI WA 15:00:00 TS -13.55 118.32 433 433 P_____P_____P_ SH321999 -13.53 118.24 50 0 -13.61 118.49 40 83 961 215 -13.53 118.24 TC 50 11 232
1999 SI WA 16:00:00 TS -13.66 118.19 85 960 bom 448 448 P_____O_____P_ SH321999 -13.65 118.13 51 0 -13.70 118.30 40 85 960 5.00 215 3 5 -13.65 118.13 TC 51 10 229
1999 SI WA 18:00:00 TS -13.88 117.94 484 484 O_____P_____O_ jtwc_sh SH321999 -13.90 117.90 55 0 -13.83 118.01 40 91 953 215 -13.90 117.90 TC 55 10 228
1999 SI WA 19:00:00 TS -14.00 117.81 95 950 bom 499 499 P_____O_____P_ SH321999 -14.04 117.76 58 0 -13.90 117.90 40 95 950 5.50 215 3 5 -14.04 117.76 TC 58 11 225
1999 SI WA 21:00:00 TS -14.26 117.54 543 543 P_____P_____P_ SH321999 -14.35 117.47 65 1 -14.08 117.69 40 98 943 215 -14.35 117.47 TC 65 11 222
1999 SI WA 22:00:00 TS -14.40 117.42 100 940 bom 557 557 P_____O_____P_ SH321999 -14.51 117.33 68 1 -14.20 117.60 40 100 940 6.00 215 4 3 5 -14.51 117.33 TC 68 11 215
1999 SI WA 1999-04-06 00:00:00 TS -14.71 117.22 596 596 O_____P_____O_ jtwc_sh SH321999 -14.80 117.10 75 1 -14.52 117.47 40 106 933 215 -14.80 117.10 TC 75 11 211
1999 SI WA 01:00:00 TS -14.85 117.15 110 930 bom 607 602 P_____O_____P_ SH321999 -14.93 117.02 78 1 -14.70 117.40 40 110 930 6.50 215 4 3 5 -14.93 117.02 TC 78 9 207
1999 SI WA 03:00:00 TS -15.12 117.00 602 584 P_____P_____P_ SH321999 -15.16 116.90 85 2 -15.04 117.20 40 113 923 215 -15.16 116.90 TC 85 9 206
1999 SI WA 04:00:00 TS -15.25 116.94 115 920 bom 584 562 P_____O_____P_ SH321999 -15.28 116.86 88 2 -15.20 117.10 40 115 920 6.50 215 5 3 5 -15.28 116.86 TC 88 8 202
1999 SI WA 06:00:00 TS -15.49 116.85 562 554 O_____P_____O_ jtwc_sh SH321999 -15.50 116.80 95 2 -15.46 116.95 40 118 913 215 -15.50 116.80 TC 95 8 200
1999 SI WA 07:00:00 TS -15.61 116.80 120 910 bom 554 524 P_____O_____P_ SH321999 -15.62 116.76 98 3 -15.60 116.90 40 120 910 7.00 215 8 3 5 -15.62 116.76 TC 98 8 196
1999 SI WA 09:00:00 TS -15.89 116.73 524 514 P_____P_____P_ SH321999 -15.86 116.68 105 3 -15.94 116.84 40 120 903 215 -15.86 116.68 TC 105 8 195
1999 SI WA 10:00:00 TS -16.02 116.70 120 900 bom 514 492 P_____O_____P_ SH321999 -15.97 116.65 108 3 -16.10 116.80 40 120 900 7.00 215 8 3 5 -15.97 116.65 TC 108 7 197
1999 SI WA 12:00:00 TS -16.24 116.62 492 481 O_____P_____O_ jtwc_sh SH321999 -16.20 116.60 115 4 -16.32 116.67 40 120 900 215 -16.20 116.60 TC 115 7 198
1999 SI WA 13:00:00 TS -16.34 116.59 120 900 bom 481 459 P_____O_____P_ SH321999 -16.31 116.58 116 4 -16.40 116.60 40 120 900 7.00 215 8 3 5 -16.31 116.58 TC 116 6 197
1999 SI WA 15:00:00 TS -16.52 116.53 459 448 P_____P_____P_ SH321999 -16.51 116.57 120 4 -16.54 116.45 40 116 900 215 -16.51 116.57 TC 120 6 194
1999 SI WA 16:00:00 TS -16.60 116.52 115 900 bom 448 425 P_____O_____P_ SH321999 -16.61 116.57 121 4 -16.60 116.40 40 115 900 6.50 215 5 3 5 -16.61 116.57 TC 121 5 0
1999 SI WA 18:00:00 TS -16.78 116.53 425 414 O_____P_____O_ jtwc_sh SH321999 -16.80 116.60 125 4 -16.73 116.38 40 108 906 215 -16.80 116.60 TC 125 5 174
1999 SI WA 19:00:00 TS -16.85 116.54 105 910 bom 414 402 P_____O_____P_ SH321999 -16.88 116.61 125 4 -16.80 116.40 40 105 910 6.00 215 4 3 5 -16.88 116.61 TC 125 5 167
1999 SI WA 21:00:00 TS -17.02 116.58 402 391 P_____P_____P_ SH321999 -17.04 116.66 127 4 -16.99 116.44 40 101 916 197 -17.04 116.66 TC 127 6 164
1999 SI WA 22:00:00 TS -17.12 116.63 100 920 bom 391 357 P_____O_____P_ SH321999 -17.14 116.69 128 4 -17.10 116.50 40 100 920 6.00 188 4 3 5 -17.14 116.69 TC 128 8 152
1999 SI WA 1999-04-07 00:00:00 TS -17.38 116.78 357 335 O_____P_____O_ jtwc_sh SH321999 -17.40 116.80 130 4 -17.35 116.75 40 96 926 170 -17.40 116.80 TC 130 10 152
1999 SI WA 01:00:00 TS -17.57 116.88 95 930 bom 335 288 P_____O_____P_ SH321999 -17.60 116.87 127 4 -17.50 116.90 40 95 930 5.50 161 5 3 5 -17.60 116.87 TC 127 14 155
1999 SI WA 03:00:00 TS -18.01 117.09 288 263 P_____P_____P_ SH321999 -18.07 117.04 122 4 -17.89 117.18 40 95 933 161 -18.07 117.04 TC 122 15 156
1999 SI WA 04:00:00 TS -18.25 117.20 95 935 bom 263 228 P_____O_____P_ SH321999 -18.32 117.15 119 4 -18.10 117.30 40 95 935 5.50 161 4 6 5 -18.32 117.15 TC 119 16 156
1999 SI WA 05:00:00 TS -18.48 117.31 95 935 bom 228 203 P_____O_____P_ SH321999 -18.57 117.27 117 4 -18.30 117.40 40 95 935 5.50 161 4 6 5 -18.57 117.27 TC 117 15 154
1999 SI WA 06:00:00 TS -18.70 117.43 95 940 bom 203 175 O_____O_____O_ jtwc_sh SH321999 -18.80 117.40 115 4 -18.50 117.50 40 95 940 5.50 134 4 6 5 -18.80 117.40 TC 115 14 150
1999 SI WA 07:00:00 TS -18.89 117.56 90 940 bom 175 151 P_____O_____P_ SH321999 -18.99 117.54 112 3 -18.70 117.60 40 90 940 5.50 134 4 6 5 -18.99 117.54 TC 112 14 143
1999 SI WA 08:00:00 TS -19.08 117.73 90 945 bom 151 135 P_____O_____P_ SH321999 -19.16 117.70 109 3 -18.90 117.80 40 90 945 5.50 107 3 6 5 -19.16 117.70 TC 109 14 141
1999 SI WA 09:00:00 TS -19.25 117.88 85 945 bom 124 112 P_____O_____P_ SH321999 -19.33 117.86 107 3 -19.10 117.90 40 85 945 5.00 107 3 6 5 -19.33 117.86 TC 107 13 139
1999 SI WA 10:00:00 TS -19.39 118.02 80 950 bom 112 89 P_____O_____P_ SH321999 -19.49 118.04 104 3 -19.20 118.00 40 80 950 5.00 80 3 6 5 -19.49 118.04 TC 104 13 137
1999 SI WA 11:00:00 TS -19.56 118.18 80 955 bom 89 78 P_____O_____P_ SH321999 -19.64 118.22 102 3 -19.40 118.10 40 80 955 5.00 80 3 6 5 -19.64 118.22 TC 102 13 136
1999 SI WA 12:00:00 TS -19.70 118.33 70 960 bom 78 67 O_____O_____O_ jtwc_sh SH321999 -19.80 118.40 100 3 -19.50 118.20 40 70 960 4.50 80 3 6 5 -19.80 118.40 TC 100 13 131
1999 SI WA 13:00:00 TS -19.84 118.52 65 965 bom 67 38 P_____O_____P_ SH321999 -19.96 118.58 93 2 -19.60 118.40 40 65 965 4.50 80 3 6 5 -19.96 118.58 TC 93 13 132
1999 SI WA 14:00:00 TS -19.99 118.67 60 970 bom 38 23 P_____O_____P_ SH321999 -20.13 118.75 86 2 -19.70 118.50 30 60 970 4.00 80 3 6 5 -20.13 118.75 TC 86 14 135
1999 SI WA 15:00:00 TS -20.16 118.86 55 975 bom 10 0 P_____O_____P_ SH321999 -20.29 118.94 80 1 -19.90 118.70 30 55 975 4.00 80 6 7 -20.29 118.94 TC 80 14 138
1999 SI WA 16:00:00 TS -20.34 119.01 50 980 bom 0 0 P_____O_____P_ SH321999 -20.46 119.12 73 1 -20.10 118.80 30 50 980 53 6 7 -20.46 119.12 TC 73 13 137
1999 SI WA 17:00:00 TS -20.49 119.17 40 985 bom 0 0 P_____O_____P_ SH321999 -20.63 119.31 66 1 -20.20 118.90 30 40 985 53 6 7 -20.63 119.31 TC 66 13 135
1999 SI WA 18:00:00 TS -20.63 119.33 35 990 bom 0 0 O_____O_____O_ jtwc_sh SH321999 -20.80 119.50 60 0 -20.30 119.00 30 35 990 53 6 7 -20.80 119.50 TC 60 13 135
1999 SI WA 19:00:00 TS -20.79 119.51 30 995 bom 0 0 P_____O_____P_ SH321999 -20.99 119.71 57 0 -20.40 119.10 20 30 995 53 6 7 -20.99 119.71 TC 57 15 132
1999 SI WA 20:00:00 TS -20.96 119.72 30 998 bom 0 0 P_____O_____P_ SH321999 -21.19 119.93 54 0 -20.50 119.30 20 30 998 53 6 7 -21.19 119.93 TC 54 15 130
1999 SI WA 21:00:00 TS -21.12 119.93 25 999 bom 0 0 P_____O_____P_ SH321999 -21.38 120.14 52 0 -20.60 119.50 20 25 999 53 6 7 -21.38 120.14 TC 52 14 127
1999 SI WA 22:00:00 TS -21.25 120.13 25 1000 bom 0 0 P_____O_____P_ SH321999 -21.57 120.35 49 0 -20.60 119.70 20 25 1000 53 2 7 -21.57 120.35 TC 49 11 120
1999 SI WA 1999-04-08 00:00:00 TS -21.41 120.46 0 0 O_____P_____O_ jtwc_sh SH321999 -21.90 120.70 45 0 -20.43 119.98 20 25 1000 53 -21.90 120.70 TC 45 11 124
1999 SI WA 01:00:00 TS -21.56 120.63 25 1001 bom 0 0 P_____O_____P_ SH321999 -22.03 120.82 43 0 -20.30 120.10 20 25 1001 53 2 7 -22.03 120.82 TC 43 11 135
1999 SI WA 03:00:00 TS -21.81 120.89 0 0 P_____P_____P_ SH321999 -22.24 121.00 40 0 -20.09 120.42 20 25 1001 53 -22.24 121.00 TC 40 13 145
1999 SI WA 04:00:00 TS -22.07 121.02 25 1002 bom 0 0 P_____O_____P_ SH321999 -22.33 121.07 38 0 -20.00 120.60 20 25 1002 53 2 7 -22.33 121.07 TC 38 15 157
1999 SI WA 06:00:00 TS -22.50 121.20 0 0 O___________O_ jtwc_sh SH321999 -22.50 121.20 35 0 20 -22.50 121.20 TC 35 10 152
1999 SI WA 09:00:00 TS -22.79 121.43 0 0 P___________P_ SH321999 -22.79 121.43 30 -1 -22.79 121.43 TC 30 8 142
1999 SI WA 12:00:00 TS -23.10 121.70 0 O___________O_ jtwc_sh SH321999 -23.10 121.70 25 -1 -23.10 121.70 TC 25 8 142